Terminal Aerodrome Forecast
Issued by NWS Wichita, KS

Home | Current Version | Previous Version | Graphics & Text | Print | Product List | Glossary On
Versions: 1 2 3 4 5 6 7 8 9 10 11 12 13 14 15
000
FTUS43 KICT 260539
TAFICT
TAF
KICT 260539Z 2606/2706 19015KT P6SM BKN250
     FM261000 VRB05KT P6SM SCT250
     FM261500 02012KT P6SM SCT015 BKN025
     FM270100 33012KT P6SM VCSH BKN018 OVC040=

USA.gov is the U.S. government's official web portal to all federal, state and local government web resources and services.